Time;durP1;ratioP1;P1;durP2;ratioP2;P2;SDS_P1;SDS_P2;PMS_P1;PMS_P2;Temp;Humidity;BMP_temperature;BMP_pressure;BME280_temperature;BME280_humidity;BME280_pressure;Samples;Min_cycle;Max_cycle;Signal;HPM_P1;HPM_P2
2023/01/12 00:02:49;;;;;;;11.15;1.80;;;;;;;11.31;85.88;100279.94;8323163;28;20121;-55
2023/01/12 00:06:50;;;;;;;5.97;1.40;;;;;;;11.28;87.28;100280.25;8325340;28;20044;-55
2023/01/12 00:10:55;;;;;;;8.90;1.60;;;;;;;11.19;88.74;100273.03;8324126;28;20107;-55
2023/01/12 00:14:55;;;;;;;5.10;1.15;;;;;;;11.11;89.36;100266.66;8322965;28;20418;-56
2023/01/12 00:18:56;;;;;;;7.90;1.35;;;;;;;11.17;89.07;100277.75;8306921;28;20060;-55
2023/01/12 00:22:57;;;;;;;11.90;1.80;;;;;;;11.16;88.64;100253.56;8322410;28;20049;-56
2023/01/12 00:26:59;;;;;;;6.78;1.85;;;;;;;11.18;88.41;100252.38;8323872;28;20124;-55
2023/01/12 00:31:02;;;;;;;6.57;1.33;;;;;;;11.20;88.24;100255.78;8324595;28;20046;-55
2023/01/12 00:35:03;;;;;;;6.95;1.55;;;;;;;11.16;88.15;100276.03;8322071;28;20041;-56
2023/01/12 00:39:04;;;;;;;9.90;1.70;;;;;;;11.21;88.03;100267.47;8324611;28;20067;-55
2023/01/12 00:47:25;;;;;;;6.57;1.83;;;;;;;11.18;89.34;100262.34;8323612;28;20191;-55
2023/01/12 00:51:25;;;;;;;6.57;1.33;;;;;;;11.16;90.32;100264.38;8323531;28;20045;-55
2023/01/12 00:55:25;;;;;;;14.63;1.77;;;;;;;11.09;91.34;100264.13;8323052;28;20529;-55
2023/01/12 00:59:27;;;;;;;11.27;1.88;;;;;;;11.02;91.86;100249.50;8322596;28;20530;-56
2023/01/12 01:03:27;;;;;;;13.48;2.15;;;;;;;10.97;92.49;100251.78;8322617;28;20045;-55
2023/01/12 01:07:27;;;;;;;13.93;1.58;;;;;;;10.97;92.56;100257.19;8321541;28;20053;-55
2023/01/12 01:11:28;;;;;;;7.72;1.60;;;;;;;10.99;91.84;100241.69;8322534;28;20057;-55
2023/01/12 01:15:28;;;;;;;11.65;1.50;;;;;;;11.07;91.77;100247.16;8321214;28;20041;-55
2023/01/12 01:19:29;;;;;;;9.52;1.80;;;;;;;11.14;90.90;100259.13;8322000;28;20061;-54
2023/01/12 01:23:34;;;;;;;10.02;1.90;;;;;;;11.20;90.73;100255.78;8321982;28;20060;-55
2023/01/12 01:27:34;;;;;;;8.55;1.63;;;;;;;11.19;91.13;100248.66;8321973;28;20180;-55
2023/01/12 01:31:35;;;;;;;14.13;2.30;;;;;;;11.23;90.51;100260.88;8322579;28;20342;-55
2023/01/12 01:35:36;;;;;;;8.20;1.58;;;;;;;11.22;90.57;100256.50;8301456;28;20067;-55
2023/01/12 01:39:36;;;;;;;10.40;2.15;;;;;;;11.25;90.12;100250.78;8322016;28;20061;-56
2023/01/12 01:44:18;;;;;;;8.73;1.60;;;;;;;11.36;88.43;100231.63;8320654;28;20048;-54
2023/01/12 01:48:19;;;;;;;15.65;2.17;;;;;;;11.42;87.57;100228.31;8321113;28;20518;-54
2023/01/12 01:52:25;;;;;;;14.50;2.17;;;;;;;11.52;86.44;100231.78;8321651;28;20127;-55
2023/01/12 01:56:30;;;;;;;14.52;2.15;;;;;;;11.59;85.72;100222.03;8321917;28;20121;-56
2023/01/12 02:00:30;;;;;;;;;;;;;;;11.60;85.23;100210.22;8321284;28;20445;-54
2023/01/12 02:04:31;;;;;;;14.38;2.42;;;;;;;11.64;84.91;100203.53;8321621;28;19927;-54
2023/01/12 02:09:13;;;;;;;16.52;2.08;;;;;;;11.63;84.75;100191.00;8321515;28;20498;-55
2023/01/12 02:18:14;;;;;;;16.15;2.25;;;;;;;11.61;85.32;100190.25;8287526;28;20049;-55
2023/01/12 02:31:35;;;;;;;17.88;2.45;;;;;;;11.64;84.53;100173.75;8315612;28;20377;-54
2023/01/12 02:35:48;;;;;;;11.00;1.70;;;;;;;11.63;84.46;100166.63;8313463;28;20164;-54
2023/01/12 02:39:58;;;;;;;12.63;2.03;;;;;;;11.65;84.71;100158.34;8316438;28;20037;-54
2023/01/12 02:44:00;;;;;;;9.00;1.67;;;;;;;11.67;84.39;100162.59;8316245;28;20044;-54
2023/01/12 02:52:29;;;;;;;10.77;1.77;;;;;;;11.62;85.33;100154.06;8405217;27;20423;-54
2023/01/12 02:56:38;;;;;;;8.13;1.48;;;;;;;11.60;85.61;100152.50;8399150;27;20044;-55
2023/01/12 03:00:41;;;;;;;8.48;1.20;;;;;;;11.53;86.94;100148.72;8398558;27;20044;-55
2023/01/12 03:04:42;;;;;;;6.68;1.30;;;;;;;11.38;89.06;100143.00;8396763;28;20045;-55
2023/01/12 03:08:45;;;;;;;6.78;1.50;;;;;;;11.25;90.38;100139.81;8395319;27;20041;-54
2023/01/12 03:12:50;;;;;;;10.63;1.55;;;;;;;11.10;92.33;100125.13;8387512;28;20052;-54
2023/01/12 03:16:54;;;;;;;14.02;1.65;;;;;;;11.00;93.64;100124.34;8388322;27;20044;-54
2023/01/12 03:21:01;;;;;;;11.60;1.45;;;;;;;10.93;94.79;100123.28;8399200;27;20075;-55
2023/01/12 03:25:09;;;;;;;9.20;1.25;;;;;;;10.85;96.19;100109.66;8400387;27;20067;-54
2023/01/12 03:29:18;;;;;;;10.25;2.15;;;;;;;10.78;96.91;100103.16;8401693;27;20033;-55
2023/01/12 03:33:19;;;;;;;13.38;1.30;;;;;;;10.74;97.87;100100.91;8401900;27;20052;-54
2023/01/12 03:37:49;;;;;;;4.55;1.58;;;;;;;10.70;98.50;100091.41;8401369;27;20067;-55
2023/01/12 03:41:56;;;;;;;6.75;1.23;;;;;;;10.68;98.63;100096.97;8399167;27;20040;-54
2023/01/12 03:46:07;;;;;;;11.88;1.20;;;;;;;10.72;97.76;100098.34;8401651;27;20123;-54
2023/01/12 03:50:14;;;;;;;10.70;1.30;;;;;;;10.67;98.56;100087.13;8401413;27;20040;-59
2023/01/12 03:54:17;;;;;;;7.82;1.90;;;;;;;10.75;97.63;100086.38;8409124;27;20041;-59
2023/01/12 03:58:18;;;;;;;9.00;1.20;;;;;;;10.73;98.04;100093.81;8401784;27;20439;-59
2023/01/12 04:02:18;;;;;;;6.60;1.08;;;;;;;10.70;98.16;100080.59;8386200;27;20041;-59
2023/01/12 04:06:19;;;;;;;6.72;1.15;;;;;;;10.69;97.99;100074.31;8379013;28;20506;-59
2023/01/12 04:10:19;;;;;;;6.30;0.90;;;;;;;10.72;98.00;100071.31;8378657;28;20506;-57
2023/01/12 04:14:20;;;;;;;6.45;1.35;;;;;;;10.74;97.84;100058.47;8380264;28;20136;-56
2023/01/12 04:18:20;;;;;;;4.70;0.77;;;;;;;10.68;98.70;100059.13;8360829;28;20052;-60
2023/01/12 04:22:52;;;;;;;4.25;0.75;;;;;;;10.68;98.89;100051.00;8386300;28;20040;-59
2023/01/12 04:26:41;;;;;;;3.10;0.70;;;;;;;10.68;98.53;100048.31;8347552;28;20037;-59
2023/01/12 04:30:41;;;;;;;6.47;1.35;;;;;;;10.70;98.54;100046.28;8344111;28;20049;-59
2023/01/12 04:34:42;;;;;;;3.45;0.70;;;;;;;10.76;97.94;100044.81;8353330;28;20040;-59
2023/01/12 04:38:42;;;;;;;4.90;1.00;;;;;;;10.74;98.28;100028.75;8376956;28;20040;-59
2023/01/12 04:43:08;;;;;;;5.78;0.80;;;;;;;10.74;98.54;100009.81;8378158;28;20162;-58
2023/01/12 04:47:09;;;;;;;3.75;0.60;;;;;;;10.73;99.71;100004.59;8377208;28;20051;-54
2023/01/12 04:51:10;;;;;;;2.88;0.57;;;;;;;10.64;100.00;99998.22;8377533;28;20104;-59
2023/01/12 04:55:11;;;;;;;6.57;0.60;;;;;;;10.57;100.00;99990.88;8377616;28;20048;-60
2023/01/12 04:59:12;;;;;;;3.78;0.60;;;;;;;10.55;100.00;99977.53;8376755;28;20060;-60
2023/01/12 05:03:14;;;;;;;3.60;0.57;;;;;;;10.53;100.00;99979.56;8372230;28;20039;-60
2023/01/12 05:07:15;;;;;;;6.15;1.30;;;;;;;10.47;100.00;99985.56;8375123;28;20041;-59
2023/01/12 05:11:16;;;;;;;3.63;0.60;;;;;;;10.46;100.00;99983.03;8376347;28;20036;-60
2023/01/12 05:15:16;;;;;;;4.68;0.95;;;;;;;10.40;100.00;99962.84;8373032;28;20051;-59
2023/01/12 05:19:17;;;;;;;5.35;0.68;;;;;;;10.36;100.00;99956.06;8376099;28;20050;-59
2023/01/12 05:23:17;;;;;;;8.30;0.73;;;;;;;10.38;100.00;99942.41;8355409;28;20063;-57
2023/01/12 05:27:17;;;;;;;3.13;0.63;;;;;;;10.31;100.00;99947.53;8366637;28;20082;-56
2023/01/12 05:31:18;;;;;;;3.25;0.70;;;;;;;10.27;100.00;99924.56;8361366;28;20044;-57
2023/01/12 05:35:19;;;;;;;6.63;0.77;;;;;;;10.28;100.00;99910.03;8359066;28;20098;-59
2023/01/12 05:39:20;;;;;;;3.13;0.60;;;;;;;10.34;100.00;99898.59;8360209;28;20099;-59
2023/01/12 05:43:53;;;;;;;2.53;0.60;;;;;;;10.33;100.00;99879.84;8340954;28;20045;-57
2023/01/12 05:47:41;;;;;;;1.23;0.40;;;;;;;10.31;100.00;99877.31;8365916;28;20417;-59
2023/01/12 05:51:41;;;;;;;1.55;0.38;;;;;;;10.25;100.00;99867.16;8422559;28;20109;-59
2023/01/12 05:55:42;;;;;;;4.15;0.47;;;;;;;10.23;100.00;99862.88;8379603;28;20405;-55
2023/01/12 05:59:42;;;;;;;3.67;0.47;;;;;;;10.25;100.00;99858.19;8370783;28;20064;-59
2023/01/12 06:03:48;;;;;;;3.45;0.82;;;;;;;10.24;100.00;99856.50;8374777;28;20037;-57
2023/01/12 06:07:48;;;;;;;2.97;0.60;;;;;;;10.27;100.00;99853.50;8344584;28;20051;-54
2023/01/12 06:16:09;;;;;;;2.78;0.68;;;;;;;10.31;100.00;99844.88;8367245;28;20508;-54
2023/01/12 06:20:13;;;;;;;4.00;0.73;;;;;;;10.31;100.00;99850.28;8353404;28;20118;-53
2023/01/12 06:24:14;;;;;;;4.22;0.47;;;;;;;10.33;100.00;99848.28;8364859;28;20526;-54
2023/01/12 06:28:15;;;;;;;3.63;0.40;;;;;;;10.34;100.00;99844.56;8338871;28;20424;-55
2023/01/12 06:32:15;;;;;;;0.82;0.80;;;;;;;10.38;100.00;99846.00;8346661;28;20032;-56
2023/01/12 06:36:16;;;;;;;2.47;0.40;;;;;;;10.44;100.00;99839.97;8373530;28;20036;-55
2023/01/12 06:40:16;;;;;;;2.92;0.60;;;;;;;10.50;100.00;99838.47;8394958;28;20040;-56
2023/01/12 06:44:17;;;;;;;2.85;0.40;;;;;;;10.65;100.00;99832.38;8388146;28;20037;-56
2023/01/12 06:48:21;;;;;;;2.63;0.47;;;;;;;10.70;100.00;99834.59;8334642;28;20482;-56
2023/01/12 06:52:23;;;;;;;6.23;0.80;;;;;;;10.77;100.00;99825.66;8336413;28;20045;-56
2023/01/12 06:56:23;;;;;;;3.08;0.45;;;;;;;10.80;100.00;99825.34;8356097;28;20045;-55
2023/01/12 07:00:24;;;;;;;6.60;0.73;;;;;;;11.01;100.00;99823.13;8360939;28;20041;-56
2023/01/12 07:04:25;;;;;;;5.18;0.63;;;;;;;11.04;100.00;99814.69;8364223;28;20033;-55
2023/01/12 07:08:25;;;;;;;4.65;0.60;;;;;;;11.06;100.00;99809.97;8365314;28;20040;-56
2023/01/12 07:12:26;;;;;;;4.45;0.63;;;;;;;11.16;100.00;99810.69;8335356;28;20056;-56
2023/01/12 07:16:26;;;;;;;5.07;0.60;;;;;;;11.19;100.00;99810.38;8373250;28;20033;-55
2023/01/12 07:20:27;;;;;;;4.28;0.52;;;;;;;11.27;100.00;99796.03;8385006;28;20029;-55
2023/01/12 07:24:27;;;;;;;4.40;1.00;;;;;;;11.28;100.00;99792.31;8365487;28;20118;-55
2023/01/12 07:28:30;;;;;;;3.03;0.95;;;;;;;11.30;100.00;99799.25;8336628;28;20048;-55
2023/01/12 07:32:30;;;;;;;2.97;0.50;;;;;;;11.35;100.00;99805.03;8337748;28;20041;-55
2023/01/12 07:36:31;;;;;;;2.90;0.65;;;;;;;11.33;100.00;99815.19;8347973;28;20041;-56
2023/01/12 07:40:32;;;;;;;8.60;0.60;;;;;;;11.42;100.00;99794.41;8378419;28;20436;-54
2023/01/12 07:44:33;;;;;;;8.40;0.93;;;;;;;11.42;100.00;99800.66;8373702;28;20097;-56
2023/01/12 07:48:33;;;;;;;3.10;0.50;;;;;;;11.43;100.00;99806.91;8386308;28;20047;-56
2023/01/12 07:52:34;;;;;;;6.90;0.60;;;;;;;11.52;100.00;99817.63;8352294;28;20383;-54
2023/01/12 07:56:34;;;;;;;5.20;0.40;;;;;;;11.51;99.63;99805.09;8374212;28;20452;-55
2023/01/12 08:00:35;;;;;;;2.67;0.43;;;;;;;11.55;100.00;99821.84;8368794;28;20036;-56
2023/01/12 08:04:35;;;;;;;2.05;0.30;;;;;;;11.52;100.00;99820.31;8361464;28;20098;-56
2023/01/12 08:08:36;;;;;;;1.95;0.60;;;;;;;11.51;100.00;99815.94;8375711;28;20041;-59
2023/01/12 08:12:37;;;;;;;3.50;0.40;;;;;;;11.54;100.00;99831.00;8352825;28;20041;-59
2023/01/12 08:16:42;;;;;;;2.80;0.40;;;;;;;11.50;100.00;99819.63;8342514;28;20511;-59
2023/01/12 08:20:43;;;;;;;2.92;0.50;;;;;;;11.54;100.00;99810.19;8351974;28;20088;-58
2023/01/12 08:24:51;;;;;;;0.88;0.30;;;;;;;11.60;100.00;99823.06;8396730;28;20041;-59
2023/01/12 08:29:01;;;;;;;2.67;0.30;;;;;;;11.64;100.00;99824.47;8358639;28;20075;-55
2023/01/12 08:33:01;;;;;;;2.63;0.40;;;;;;;11.69;100.00;99818.56;8369424;28;20040;-55
2023/01/12 08:37:07;;;;;;;2.05;1.10;;;;;;;11.73;100.00;99806.38;8386182;28;20047;-55
2023/01/12 08:41:41;;;;;;;1.17;0.22;;;;;;;11.81;100.00;99823.47;8391764;28;20545;-55
2023/01/12 08:45:27;;;;;;;2.17;0.50;;;;;;;11.89;99.65;99820.81;8374683;28;20037;-54
2023/01/12 08:49:29;;;;;;;1.00;0.35;;;;;;;11.86;99.79;99826.56;8384089;28;20036;-56
2023/01/12 08:53:29;;;;;;;1.50;0.30;;;;;;;11.97;98.63;99832.66;8390231;28;20053;-59
2023/01/12 08:57:30;;;;;;;1.85;0.60;;;;;;;12.01;98.71;99840.28;8354632;28;20048;-60
2023/01/12 09:01:30;;;;;;;1.90;0.40;;;;;;;12.04;98.92;99848.09;8367363;28;20041;-56
2023/01/12 09:05:31;;;;;;;1.13;0.32;;;;;;;12.00;99.41;99833.19;8373710;28;20465;-58
2023/01/12 09:09:31;;;;;;;3.10;0.63;;;;;;;11.99;100.00;99841.47;8370611;28;20139;-59
2023/01/12 09:13:33;;;;;;;2.67;0.45;;;;;;;12.01;100.00;99853.84;8348363;28;20065;-57
2023/01/12 09:17:33;;;;;;;1.08;0.35;;;;;;;11.99;100.00;99844.19;8340977;28;20033;-59
2023/01/12 09:21:37;;;;;;;1.75;0.45;;;;;;;12.00;100.00;99854.00;8340204;28;20129;-58
2023/01/12 09:25:37;;;;;;;3.13;0.40;;;;;;;12.02;100.00;99847.44;8341126;28;20060;-59
2023/01/12 09:29:38;;;;;;;2.45;0.63;;;;;;;12.02;100.00;99857.41;8348120;28;20042;-58
2023/01/12 09:33:39;;;;;;;1.10;0.30;;;;;;;12.08;100.00;99859.44;8373150;28;20502;-58
2023/01/12 09:37:42;;;;;;;0.70;0.30;;;;;;;12.08;100.00;99859.44;8381198;28;20051;-59
2023/01/12 09:47:17;;;;;;;;;;;;;;;12.21;100.00;99876.06;8372999;28;20032;-59
2023/01/12 09:50:45;;;;;;;1.75;0.20;;;;;;;12.20;100.00;99872.50;8409715;28;20388;-60
2023/01/12 09:54:50;;;;;;;2.90;0.35;;;;;;;12.27;100.00;99878.09;8377001;28;20048;-59
2023/01/12 09:59:12;;;;;;;2.17;0.43;;;;;;;12.24;100.00;99883.88;8371976;28;20047;-60
2023/01/12 10:03:34;;;;;;;1.88;0.38;;;;;;;12.23;100.00;99893.00;8368384;28;20328;-59
2023/01/12 10:07:35;;;;;;;1.33;0.28;;;;;;;12.26;100.00;99898.09;8372372;28;20649;-59
2023/01/12 10:12:15;;;;;;;0.80;0.25;;;;;;;12.34;100.00;99906.22;8372407;28;20383;-58
2023/01/12 10:16:24;;;;;;;1.30;0.30;;;;;;;12.39;100.00;99903.88;8387695;28;20055;-59
2023/01/12 10:20:40;;;;;;;4.22;0.50;;;;;;;12.39;100.00;99898.47;8379804;28;20120;-59
2023/01/12 10:24:41;;;;;;;0.88;0.35;;;;;;;12.42;100.00;99906.25;8354704;28;20567;-59
2023/01/12 10:28:44;;;;;;;2.08;0.20;;;;;;;12.42;100.00;99908.97;8338471;28;20048;-59
2023/01/12 10:32:45;;;;;;;1.83;0.40;;;;;;;12.51;99.83;99886.28;8338406;28;20244;-59
2023/01/12 10:36:48;;;;;;;0.88;0.45;;;;;;;12.54;99.80;99897.66;8359624;28;20071;-58
2023/01/12 10:41:04;;;;;;;1.70;0.50;;;;;;;12.63;99.65;99884.94;8342375;28;20049;-59
2023/01/12 10:45:15;;;;;;;1.75;0.20;;;;;;;12.70;98.61;99896.78;8386782;28;20024;-59
2023/01/12 10:49:20;;;;;;;2.72;0.30;;;;;;;12.77;98.21;99886.94;8341255;28;20563;-59
2023/01/12 10:53:26;;;;;;;1.60;0.30;;;;;;;12.76;97.84;99882.56;8345250;28;20065;-58
2023/01/12 10:57:27;;;;;;;1.23;0.47;;;;;;;12.82;96.92;99890.00;8368119;28;20033;-59
2023/01/12 11:01:42;;;;;;;0.35;0.25;;;;;;;12.80;97.84;99881.19;8369266;28;20041;-59
2023/01/12 11:05:43;;;;;;;1.52;0.30;;;;;;;12.85;96.59;99878.81;8372404;28;20406;-59
2023/01/12 11:09:44;;;;;;;1.60;0.30;;;;;;;13.01;96.09;99873.41;8371296;28;20187;-59
2023/01/12 11:13:45;;;;;;;0.40;0.15;;;;;;;13.13;94.29;99872.88;8373141;28;20037;-59
2023/01/12 11:18:17;;;;;;;1.65;0.20;;;;;;;13.07;94.35;99872.72;8376576;28;20097;-56
2023/01/12 11:22:26;;;;;;;1.55;0.40;;;;;;;12.99;95.14;99875.44;8377270;28;20040;-59
2023/01/12 11:26:33;;;;;;;2.85;0.30;;;;;;;13.00;95.49;99871.72;8376643;28;20047;-59
2023/01/12 11:30:50;;;;;;;1.38;0.30;;;;;;;13.06;95.45;99887.31;8344280;28;20033;-57
2023/01/12 11:34:56;;;;;;;1.90;0.30;;;;;;;13.07;94.85;99867.28;8369803;28;20036;-58
2023/01/12 11:39:04;;;;;;;1.85;0.40;;;;;;;13.09;95.15;99865.25;8393280;28;20128;-59
2023/01/12 11:43:54;;;;;;;0.52;0.20;;;;;;;13.09;95.36;99870.69;8390582;28;20033;-59
2023/01/12 11:47:49;;;;;;;1.08;0.28;;;;;;;13.08;95.31;99863.53;8381482;28;20044;-58
2023/01/12 11:51:55;;;;;;;1.23;0.38;;;;;;;13.04;96.04;99868.50;8373327;28;20052;-59
2023/01/12 11:56:19;;;;;;;1.15;0.43;;;;;;;13.11;94.67;99874.91;8382898;28;20044;-59
2023/01/12 12:00:35;;;;;;;1.75;0.30;;;;;;;13.17;94.33;99879.66;8392375;28;20074;-60
2023/01/12 12:09:43;;;;;;;0.68;0.20;;;;;;;13.24;94.45;99868.97;8401918;27;20959;-59
2023/01/12 12:14:00;;;;;;;0.30;0.30;;;;;;;13.24;94.45;99869.78;8372573;27;20042;-58
2023/01/12 12:18:16;;;;;;;2.10;0.60;;;;;;;13.14;94.77;99861.00;8378296;28;20102;-59
2023/01/12 12:22:51;;;;;;;0.75;0.40;;;;;;;13.08;95.81;99863.53;8415912;28;20477;-59
2023/01/12 12:27:07;;;;;;;1.92;0.30;;;;;;;13.00;96.07;99860.88;8364196;28;20115;-59
2023/01/12 12:31:36;;;;;;;0.85;0.20;;;;;;;12.97;96.67;99853.03;8364137;28;20389;-53
2023/01/12 12:36:07;;;;;;;1.00;0.30;;;;;;;12.91;97.81;99861.84;8342202;28;20038;-57
2023/01/12 12:45:39;;;;;;;0.20;0.10;;;;;;;12.82;97.55;99846.59;8332864;28;20041;-59
2023/01/12 12:49:40;;;;;;;0.10;0.10;;;;;;;12.85;97.73;99830.00;8368944;28;20100;-55
2023/01/12 12:53:44;;;;;;;0.70;0.20;;;;;;;12.83;98.71;99840.16;8346570;28;20166;-59
2023/01/12 12:58:03;;;;;;;1.02;0.22;;;;;;;12.82;98.19;99830.31;8376191;28;20116;-56
2023/01/12 13:02:44;;;;;;;0.85;0.28;;;;;;;12.72;100.00;99824.25;8347887;28;20041;-59
2023/01/12 13:06:47;;;;;;;2.05;0.30;;;;;;;12.61;100.00;99819.16;8326984;28;20046;-58
2023/01/12 13:10:50;;;;;;;1.20;0.40;;;;;;;12.64;100.00;99821.53;8409173;28;20486;-56
2023/01/12 13:15:29;;;;;;;0.63;0.20;;;;;;;12.72;99.84;99821.53;8383547;28;20120;-60
2023/01/12 13:19:41;;;;;;;1.38;0.13;;;;;;;12.84;97.38;99823.72;8345503;28;20049;-55
2023/01/12 13:23:44;;;;;;;1.90;0.20;;;;;;;12.96;96.22;99821.50;8341112;28;20128;-59
2023/01/12 13:32:42;;;;;;;1.38;0.20;;;;;;;13.14;94.47;99824.84;8313609;28;20461;-58
2023/01/12 13:36:43;;;;;;;1.70;0.22;;;;;;;13.16;94.25;99812.81;8313166;28;20175;-58
2023/01/12 13:40:43;;;;;;;0.70;0.28;;;;;;;13.20;93.94;99810.59;8316558;28;20038;-59
2023/01/12 13:44:45;;;;;;;0.40;0.20;;;;;;;13.21;94.24;99815.84;8311636;28;20038;-58
2023/01/12 13:48:48;;;;;;;0.73;0.20;;;;;;;13.22;94.23;99808.56;8316708;28;20422;-58
2023/01/12 13:53:04;;;;;;;0.93;0.30;;;;;;;13.26;93.27;99818.03;8315981;28;20072;-59
2023/01/12 13:57:09;;;;;;;0.52;0.20;;;;;;;13.24;93.83;99809.25;8308333;28;20262;-59
2023/01/12 14:01:24;;;;;;;0.38;0.28;;;;;;;13.18;93.78;99821.63;8309121;28;20037;-57
2023/01/12 14:06:05;;;;;;;2.05;0.22;;;;;;;13.15;94.45;99815.72;8307860;28;20042;-58
2023/01/12 14:10:31;;;;;;;1.05;0.40;;;;;;;13.18;93.28;99815.38;8315042;28;20458;-57
2023/01/12 14:19:27;;;;;;;1.40;0.25;;;;;;;13.11;94.83;99814.34;8309321;28;20458;-56
2023/01/12 14:23:29;;;;;;;1.52;0.30;;;;;;;13.08;95.26;99820.13;8313917;28;20053;-59
2023/01/12 14:27:30;;;;;;;0.20;0.10;;;;;;;13.02;95.32;99816.25;8290439;28;20053;-56
2023/01/12 14:31:38;;;;;;;0.68;0.22;;;;;;;13.05;95.26;99798.78;8293808;28;20037;-56
2023/01/12 14:35:45;;;;;;;0.90;0.30;;;;;;;13.04;95.57;99826.94;8299174;28;20128;-58
2023/01/12 14:39:46;;;;;;;0.30;0.28;;;;;;;13.02;95.95;99810.00;8276630;28;20088;-58
2023/01/12 14:48:27;;;;;;;1.38;0.20;;;;;;;13.06;94.87;99803.19;8290334;28;20049;-58
2023/01/12 14:52:31;;;;;;;0.52;0.20;;;;;;;13.08;94.60;99803.84;8290723;28;20395;-55
2023/01/12 14:56:40;;;;;;;1.92;0.28;;;;;;;13.14;93.58;99792.28;8290416;28;20518;-57
2023/01/12 15:00:42;;;;;;;1.00;0.28;;;;;;;13.19;92.61;99790.78;8284479;28;20046;-56
2023/01/12 15:04:59;;;;;;;1.08;0.30;;;;;;;13.19;92.18;99784.47;8279194;28;20044;-59
2023/01/12 15:08:59;;;;;;;1.25;0.30;;;;;;;13.20;92.02;99780.72;8270157;28;20050;-58
2023/01/12 15:13:25;;;;;;;0.43;0.20;;;;;;;13.21;91.83;99777.84;8282970;28;20084;-58
2023/01/12 15:26:06;;;;;;;0.40;0.20;;;;;;;13.23;90.49;99781.25;8288930;28;20037;-54
2023/01/12 15:30:09;;;;;;;2.35;0.40;;;;;;;13.31;89.38;99780.38;8290209;28;20129;-55
2023/01/12 15:34:10;;;;;;;1.27;0.30;;;;;;;13.32;89.54;99757.63;8289336;28;20072;-56
2023/01/12 15:38:12;;;;;;;0.45;0.20;;;;;;;13.33;89.18;99762.88;8273132;28;20132;-54
2023/01/12 15:42:16;;;;;;;0.38;0.13;;;;;;;13.33;89.28;99764.75;8274105;28;20031;-53
2023/01/12 15:46:18;;;;;;;1.03;0.30;;;;;;;13.28;89.84;99759.00;8275664;28;20046;-55
2023/01/12 15:50:19;;;;;;;2.25;0.28;;;;;;;13.20;90.47;99764.44;8283792;28;20052;-56
2023/01/12 15:54:20;;;;;;;0.95;0.30;;;;;;;13.21;89.86;99771.59;8287551;28;20063;-55
2023/01/12 15:58:22;;;;;;;1.20;0.20;;;;;;;13.25;89.58;99770.22;8282390;28;20049;-57
2023/01/12 16:02:32;;;;;;;2.10;0.60;;;;;;;13.24;89.85;99760.38;8276548;28;20068;-56
2023/01/12 16:06:33;;;;;;;0.50;0.20;;;;;;;13.24;89.79;99749.53;8287920;28;20045;-54
2023/01/12 16:10:33;;;;;;;0.57;0.25;;;;;;;13.21;90.11;99761.56;8288082;28;20108;-54
2023/01/12 16:14:34;;;;;;;0.22;0.15;;;;;;;13.24;89.87;99771.25;8287161;28;20050;-55
2023/01/12 16:18:34;;;;;;;0.60;0.30;;;;;;;13.26;89.73;99771.91;8287926;28;20476;-54
2023/01/12 16:22:34;;;;;;;0.98;0.28;;;;;;;13.29;89.18;99741.69;8279977;28;20041;-55
2023/01/12 16:26:35;;;;;;;0.45;0.13;;;;;;;13.29;89.44;99744.41;8281748;28;20065;-54
2023/01/12 16:30:43;;;;;;;0.30;0.20;;;;;;;13.24;89.58;99738.66;8254748;28;20154;-55
2023/01/12 16:34:44;;;;;;;0.80;0.30;;;;;;;13.24;89.28;99741.38;8274031;28;20048;-56
2023/01/12 16:38:45;;;;;;;0.60;0.30;;;;;;;13.29;89.15;99736.25;8281829;28;20068;-56
2023/01/12 16:42:45;;;;;;;1.23;0.30;;;;;;;13.28;88.72;99729.13;8262565;28;20111;-55
2023/01/12 16:46:47;;;;;;;1.92;0.20;;;;;;;13.30;88.61;99738.78;8254932;28;20054;-55
2023/01/12 16:50:47;;;;;;;1.55;0.32;;;;;;;13.40;87.83;99744.00;8254584;28;20046;-56
2023/01/12 16:54:48;;;;;;;0.63;0.25;;;;;;;13.44;87.37;99731.75;8266952;28;20049;-55
2023/01/12 16:58:48;;;;;;;0.70;0.45;;;;;;;13.43;87.46;99732.81;8279106;28;20495;-55
2023/01/12 17:02:49;;;;;;;1.13;0.20;;;;;;;13.46;87.19;99733.31;8267131;28;20419;-55
2023/01/12 17:06:50;;;;;;;2.08;0.30;;;;;;;13.43;87.47;99735.50;8285576;28;20491;-55
2023/01/12 17:10:50;;;;;;;1.30;0.40;;;;;;;13.42;87.87;99741.97;8281865;28;20033;-55
2023/01/12 17:14:50;;;;;;;0.73;0.30;;;;;;;13.45;87.39;99738.91;8263507;28;20050;-55
2023/01/12 17:18:52;;;;;;;1.52;0.25;;;;;;;13.46;87.53;99741.44;8253015;28;20038;-55
2023/01/12 17:22:52;;;;;;;2.00;0.40;;;;;;;13.51;87.03;99730.06;8283586;28;20092;-56
2023/01/12 17:26:54;;;;;;;0.75;0.28;;;;;;;13.55;86.91;99734.91;8264308;28;20042;-55
2023/01/12 17:30:56;;;;;;;0.70;0.30;;;;;;;13.50;87.76;99736.47;8267612;28;20038;-59
2023/01/12 17:34:56;;;;;;;1.15;0.30;;;;;;;13.37;88.52;99736.22;8269625;28;20457;-56
2023/01/12 17:38:57;;;;;;;2.75;0.50;;;;;;;13.33;89.05;99733.00;8283885;28;20034;-57
2023/01/12 17:43:05;;;;;;;0.70;0.30;;;;;;;13.22;90.88;99736.13;8285706;28;20482;-56
2023/01/12 17:47:05;;;;;;;1.55;0.45;;;;;;;13.11;92.14;99732.94;8287344;28;20041;-59
2023/01/12 17:51:10;;;;;;;0.98;0.40;;;;;;;13.13;91.37;99720.03;8281333;28;20547;-59
2023/01/12 17:55:10;;;;;;;1.17;0.40;;;;;;;13.16;91.50;99714.28;8258288;28;20132;-56
2023/01/12 17:59:18;;;;;;;1.17;0.35;;;;;;;13.05;92.98;99729.06;8300744;28;20054;-57
2023/01/12 18:03:18;;;;;;;2.15;0.55;;;;;;;12.92;94.49;99733.31;8284852;28;20050;-58
2023/01/12 18:07:18;;;;;;;0.75;0.20;;;;;;;12.86;95.32;99734.88;8276305;28;20042;-55
2023/01/12 18:11:19;;;;;;;0.88;0.30;;;;;;;12.83;95.13;99724.38;8252447;28;20046;-57
2023/01/12 18:15:19;;;;;;;0.55;0.30;;;;;;;12.84;95.25;99720.63;8253315;28;20061;-55
2023/01/12 18:19:20;;;;;;;0.98;0.40;;;;;;;12.87;94.16;99719.44;8257071;28;20069;-56
2023/01/12 18:23:20;;;;;;;1.13;0.40;;;;;;;13.00;93.01;99719.78;8257932;28;20100;-56
2023/01/12 18:27:21;;;;;;;1.13;0.40;;;;;;;13.10;90.85;99713.13;8271258;28;20037;-55
2023/01/12 18:31:25;;;;;;;0.45;0.30;;;;;;;13.17;90.55;99721.38;8269827;28;20065;-56
2023/01/12 18:35:26;;;;;;;0.25;0.25;;;;;;;13.20;89.97;99721.03;8285708;28;20491;-54
2023/01/12 18:39:27;;;;;;;1.67;0.43;;;;;;;13.31;89.08;99726.06;8290003;28;20068;-57
2023/01/12 18:43:27;;;;;;;0.30;0.30;;;;;;;13.31;88.93;99723.34;8258695;28;20047;-56
2023/01/12 18:48:28;;;;;;;1.63;0.30;;;;;;;13.35;88.72;99719.25;8258156;28;20074;-55
2023/01/12 18:56:08;;;;;;;1.05;0.40;;;;;;;13.34;89.07;99723.00;8266002;28;20416;-56
2023/01/12 19:00:15;;;;;;;1.35;0.30;;;;;;;13.32;88.89;99717.75;8289566;28;20166;-56
2023/01/12 19:04:24;;;;;;;0.43;0.20;;;;;;;13.31;89.06;99716.06;8283777;28;20068;-56
2023/01/12 19:12:44;;;;;;;0.70;0.20;;;;;;;13.41;87.61;99723.97;8412866;27;20760;-54
2023/01/12 19:17:45;;;;;;;0.80;0.40;;;;;;;13.32;88.49;99720.47;8413002;28;20500;-53
2023/01/12 19:29:49;;;;;;;0.50;0.20;;;;;;;13.18;89.76;99712.22;8379301;28;20454;-56
2023/01/12 19:33:49;;;;;;;0.68;0.30;;;;;;;13.08;88.66;99711.56;8387051;28;20502;-55
2023/01/12 19:37:50;;;;;;;1.75;0.20;;;;;;;13.03;89.12;99697.72;8411065;28;20409;-57
2023/01/12 19:43:19;;;;;;;0.50;0.30;;;;;;;12.87;91.08;99686.91;8399615;28;20089;-55
2023/01/12 19:46:11;;;;;;;1.73;0.50;;;;;;;12.82;91.28;99654.03;8384880;28;20067;-54
2023/01/12 19:50:12;;;;;;;1.23;0.47;;;;;;;12.78;91.65;99664.38;8393673;28;20036;-56
2023/01/12 19:54:13;;;;;;;1.80;0.77;;;;;;;12.78;92.06;99639.13;8393996;28;20048;-56
2023/01/12 19:58:13;;;;;;;2.38;0.30;;;;;;;12.93;90.39;99648.22;8412380;28;20498;-55
2023/01/12 20:02:14;;;;;;;1.20;0.40;;;;;;;12.95;90.52;99651.56;8399141;28;20083;-56
2023/01/12 20:06:14;;;;;;;2.35;0.50;;;;;;;12.91;90.79;99650.25;8407087;28;20044;-55
2023/01/12 20:10:15;;;;;;;1.65;0.60;;;;;;;12.93;90.54;99650.94;8441679;28;20052;-55
2023/01/12 20:14:15;;;;;;;1.83;0.30;;;;;;;12.94;90.32;99645.31;8405990;28;20040;-56
2023/01/12 20:18:17;;;;;;;2.60;0.30;;;;;;;13.03;89.37;99655.16;8407203;28;20039;-56
2023/01/12 20:22:18;;;;;;;2.72;0.40;;;;;;;12.98;90.00;99651.22;8396251;28;20189;-56
2023/01/12 20:26:18;;;;;;;0.20;0.20;;;;;;;13.02;89.68;99647.19;8387734;28;20040;-55
2023/01/12 20:30:20;;;;;;;1.13;0.30;;;;;;;13.03;89.72;99640.72;8387683;28;20036;-55